Time;durP1;ratioP1;P1;durP2;ratioP2;P2;SDS_P1;SDS_P2;PMS_P1;PMS_P2;Temp;Humidity;BMP_temperature;BMP_pressure;BME280_temperature;BME280_humidity;BME280_pressure;Samples;Min_cycle;Max_cycle;Signal;HPM_P1;HPM_P2
2021/11/05 00:01:58;;;;;;;41.78;26.27;;;;;;;;;;5080915;28;20205;-61
2021/11/05 00:04:25;;;;;;;37.13;26.17;;;;;;;;;;5077039;28;20220;-61
2021/11/05 00:06:55;;;;;;;40.22;26.95;;;;;;;;;;5075524;28;20205;-61
2021/11/05 00:09:22;;;;;;;40.67;26.45;;;;;;;;;;5074538;28;20204;-61
2021/11/05 00:11:50;;;;;;;43.50;28.15;;;;;;;;;;5074079;28;20663;-61
2021/11/05 00:14:17;;;;;;;35.88;25.38;;;;;;;;;;5073903;28;20221;-61
2021/11/05 00:16:45;;;;;;;37.42;27.10;;;;;;;;;;5073280;28;20201;-59
2021/11/05 00:19:12;;;;;;;37.70;26.80;;;;;;;;;;5073484;28;20200;-61
2021/11/05 00:21:40;;;;;;;39.17;26.48;;;;;;;;;;5073190;28;20672;-61
2021/11/05 00:24:09;;;;;;;37.65;25.48;;;;;;;;;;5074616;28;20232;-61
2021/11/05 00:26:36;;;;;;;39.72;27.45;;;;;;;;;;5078043;28;20243;-61
2021/11/05 00:29:04;;;;;;;42.33;27.20;;;;;;;;;;5077322;28;20228;-61
2021/11/05 00:31:31;;;;;;;37.40;24.48;;;;;;;;;;5077871;28;20197;-61
2021/11/05 00:33:59;;;;;;;41.10;28.05;;;;;;;;;;5077313;28;20221;-61
2021/11/05 00:36:26;;;;;;;36.08;23.88;;;;;;;;;;5077074;28;20715;-62
2021/11/05 00:38:54;;;;;;;37.42;25.88;;;;;;;;;;5077076;28;20232;-61
2021/11/05 00:41:23;;;;;;;38.65;24.83;;;;;;;;;;5077236;28;20244;-61
2021/11/05 00:43:50;;;;;;;40.17;26.80;;;;;;;;;;5076878;28;20719;-62
2021/11/05 00:46:18;;;;;;;37.40;24.27;;;;;;;;;;5076606;28;20228;-61
2021/11/05 00:48:45;;;;;;;34.00;24.58;;;;;;;;;;5076759;28;20205;-62
2021/11/05 00:51:12;;;;;;;36.40;25.15;;;;;;;;;;5076583;28;20238;-60
2021/11/05 00:53:40;;;;;;;33.05;23.95;;;;;;;;;;5076491;28;20231;-62
2021/11/05 00:56:07;;;;;;;37.50;26.80;;;;;;;;;;5077117;28;20228;-61
2021/11/05 00:58:36;;;;;;;39.15;26.85;;;;;;;;;;5076678;28;20204;-61
2021/11/05 01:01:03;;;;;;;34.67;24.00;;;;;;;;;;5076881;28;20209;-61
2021/11/05 01:03:30;;;;;;;37.13;24.80;;;;;;;;;;5076836;28;20225;-61
2021/11/05 01:05:57;;;;;;;37.60;25.52;;;;;;;;;;5076837;28;20204;-62
2021/11/05 01:08:25;;;;;;;38.38;24.15;;;;;;;;;;5078228;28;20209;-62
2021/11/05 01:10:52;;;;;;;34.72;24.00;;;;;;;;;;5077024;28;20216;-62
2021/11/05 01:13:19;;;;;;;34.22;24.50;;;;;;;;;;5076377;28;20244;-61
2021/11/05 01:15:48;;;;;;;34.90;24.23;;;;;;;;;;5076391;28;20201;-61
2021/11/05 01:18:16;;;;;;;35.85;24.95;;;;;;;;;;5076090;28;20673;-62
2021/11/05 01:20:43;;;;;;;35.60;24.48;;;;;;;;;;5075990;28;20205;-62
2021/11/05 01:23:10;;;;;;;36.42;25.10;;;;;;;;;;5075791;28;20712;-62
2021/11/05 01:25:38;;;;;;;37.38;24.58;;;;;;;;;;5076394;28;20209;-62
2021/11/05 01:28:05;;;;;;;33.72;23.92;;;;;;;;;;5075764;28;20201;-61
2021/11/05 01:30:32;;;;;;;39.47;23.35;;;;;;;;;;5075883;28;20708;-61
2021/11/05 01:33:06;;;;;;;31.77;23.45;;;;;;;;;;5076182;28;20228;-62
2021/11/05 01:35:35;;;;;;;33.38;23.92;;;;;;;;;;5075157;28;20177;-62
2021/11/05 01:38:03;;;;;;;34.65;24.23;;;;;;;;;;5076047;28;20204;-61
2021/11/05 01:40:30;;;;;;;33.17;24.33;;;;;;;;;;5076087;28;20193;-61
2021/11/05 01:43:01;;;;;;;34.30;23.67;;;;;;;;;;5076052;28;20224;-61
2021/11/05 01:45:29;;;;;;;31.75;22.92;;;;;;;;;;5076031;28;20181;-61
2021/11/05 01:47:57;;;;;;;38.00;24.73;;;;;;;;;;5075958;28;20201;-62
2021/11/05 01:50:27;;;;;;;34.13;23.27;;;;;;;;;;5076075;28;20209;-61
2021/11/05 01:52:54;;;;;;;37.08;25.45;;;;;;;;;;5076069;28;20259;-61
2021/11/05 01:55:22;;;;;;;35.42;23.92;;;;;;;;;;5075651;28;20239;-61
2021/11/05 01:57:49;;;;;;;35.08;23.08;;;;;;;;;;5076068;28;20637;-62
2021/11/05 02:00:18;;;;;;;33.97;21.45;;;;;;;;;;5075785;28;20208;-62
2021/11/05 02:02:46;;;;;;;39.30;22.98;;;;;;;;;;5075468;28;20312;-61
2021/11/05 02:05:13;;;;;;;38.30;23.67;;;;;;;;;;5078370;28;20205;-62
2021/11/05 02:07:44;;;;;;;38.97;23.67;;;;;;;;;;5077842;28;20201;-61
2021/11/05 02:10:12;;;;;;;30.67;23.10;;;;;;;;;;5078157;28;20185;-62
2021/11/05 02:12:39;;;;;;;37.45;24.70;;;;;;;;;;5076654;28;20220;-61
2021/11/05 02:15:07;;;;;;;37.03;24.48;;;;;;;;;;5076001;28;20217;-61
2021/11/05 02:17:35;;;;;;;32.05;22.85;;;;;;;;;;5076012;28;20208;-61
2021/11/05 02:20:04;;;;;;;38.38;24.35;;;;;;;;;;5075397;28;20208;-62
2021/11/05 02:22:33;;;;;;;33.78;22.85;;;;;;;;;;5075295;28;20235;-61
2021/11/05 02:25:00;;;;;;;34.17;23.80;;;;;;;;;;5075074;28;20699;-63
2021/11/05 02:27:30;;;;;;;33.97;23.35;;;;;;;;;;5075050;28;20211;-61
2021/11/05 02:29:57;;;;;;;32.97;22.50;;;;;;;;;;5074939;28;20201;-61
2021/11/05 02:32:25;;;;;;;40.58;25.20;;;;;;;;;;5074752;28;20228;-61
2021/11/05 02:34:52;;;;;;;31.77;21.80;;;;;;;;;;5074898;28;20221;-61
2021/11/05 02:37:21;;;;;;;35.92;23.20;;;;;;;;;;5074521;28;20204;-62
2021/11/05 02:39:50;;;;;;;38.17;24.15;;;;;;;;;;5075592;28;20533;-61
2021/11/05 02:42:17;;;;;;;40.40;25.10;;;;;;;;;;5074779;28;20217;-62
2021/11/05 02:44:45;;;;;;;39.20;25.70;;;;;;;;;;5074320;28;20197;-61
2021/11/05 02:47:16;;;;;;;35.05;24.50;;;;;;;;;;5073420;28;20201;-61
2021/11/05 02:49:44;;;;;;;37.05;23.58;;;;;;;;;;5075067;28;20236;-63
2021/11/05 02:52:12;;;;;;;41.33;24.67;;;;;;;;;;5074709;28;20267;-62
2021/11/05 02:54:39;;;;;;;34.97;23.50;;;;;;;;;;5074340;28;20220;-62
2021/11/05 02:57:09;;;;;;;34.90;24.02;;;;;;;;;;5074535;28;20585;-61
2021/11/05 02:59:36;;;;;;;41.60;26.30;;;;;;;;;;5074024;28;20684;-61
2021/11/05 03:02:04;;;;;;;40.58;25.17;;;;;;;;;;5074380;28;20256;-62
2021/11/05 03:04:31;;;;;;;35.28;23.20;;;;;;;;;;5074426;28;20201;-61
2021/11/05 03:07:01;;;;;;;38.08;23.95;;;;;;;;;;5073851;28;20201;-61
2021/11/05 03:09:32;;;;;;;36.20;23.63;;;;;;;;;;5073858;28;20200;-61
2021/11/05 03:12:00;;;;;;;33.88;21.35;;;;;;;;;;5074114;28;20259;-61
2021/11/05 03:14:29;;;;;;;40.30;25.42;;;;;;;;;;5074009;28;20213;-61
2021/11/05 03:16:56;;;;;;;39.78;24.02;;;;;;;;;;5073993;28;20208;-62
2021/11/05 03:19:23;;;;;;;44.53;23.83;;;;;;;;;;5074256;28;20201;-60
2021/11/05 03:21:51;;;;;;;33.15;21.35;;;;;;;;;;5073490;28;20204;-61
2021/11/05 03:24:18;;;;;;;38.20;23.90;;;;;;;;;;5073971;28;20181;-61
2021/11/05 03:26:46;;;;;;;36.80;23.65;;;;;;;;;;5073503;28;20197;-61
2021/11/05 03:29:13;;;;;;;33.30;21.58;;;;;;;;;;5074006;28;20212;-61
2021/11/05 03:31:42;;;;;;;37.60;23.42;;;;;;;;;;5073548;28;20205;-61
2021/11/05 03:34:10;;;;;;;37.42;23.73;;;;;;;;;;5074106;28;20220;-61
2021/11/05 03:36:37;;;;;;;37.28;23.08;;;;;;;;;;5074257;28;20269;-62
2021/11/05 03:39:05;;;;;;;45.10;24.05;;;;;;;;;;5073542;28;20701;-62
2021/11/05 03:41:33;;;;;;;40.15;22.40;;;;;;;;;;5073395;28;20212;-62
2021/11/05 03:44:00;;;;;;;39.58;23.98;;;;;;;;;;5073272;28;20217;-61
2021/11/05 03:46:30;;;;;;;34.60;22.55;;;;;;;;;;5073282;28;20691;-62
2021/11/05 03:48:59;;;;;;;37.35;23.38;;;;;;;;;;5073585;28;20252;-62
2021/11/05 03:51:27;;;;;;;41.13;23.48;;;;;;;;;;5073632;28;20239;-62
2021/11/05 03:53:54;;;;;;;37.47;23.00;;;;;;;;;;5073299;28;20778;-61
2021/11/05 03:56:22;;;;;;;33.10;21.77;;;;;;;;;;5073707;28;20205;-61
2021/11/05 03:58:50;;;;;;;34.85;22.98;;;;;;;;;;5073193;28;20254;-62
2021/11/05 04:01:19;;;;;;;33.45;21.77;;;;;;;;;;5073858;28;20215;-62
2021/11/05 04:03:46;;;;;;;39.92;24.08;;;;;;;;;;5073854;28;20229;-62
2021/11/05 04:08:52;;;;;;;43.05;24.42;;;;;;;;;;5094220;27;20546;-61
2021/11/05 04:11:19;;;;;;;37.20;22.45;;;;;;;;;;5093898;28;20693;-62
2021/11/05 04:13:47;;;;;;;45.25;23.65;;;;;;;;;;5090437;28;20220;-62
2021/11/05 04:16:14;;;;;;;40.42;23.67;;;;;;;;;;5091184;28;20211;-62
2021/11/05 04:18:41;;;;;;;39.20;23.45;;;;;;;;;;5091167;28;20204;-62
2021/11/05 04:21:09;;;;;;;37.38;21.95;;;;;;;;;;5108256;22;20237;-56
2021/11/05 04:23:36;;;;;;;37.75;21.70;;;;;;;;;;5051520;28;20213;-57
2021/11/05 04:26:05;;;;;;;38.45;23.15;;;;;;;;;;5051271;28;20202;-57
2021/11/05 04:28:32;;;;;;;35.35;21.48;;;;;;;;;;5050591;28;20213;-57
2021/11/05 04:31:00;;;;;;;41.35;21.63;;;;;;;;;;5050579;28;20206;-57
2021/11/05 04:33:27;;;;;;;35.80;21.83;;;;;;;;;;5050926;28;20224;-57
2021/11/05 04:35:54;;;;;;;48.95;23.13;;;;;;;;;;5050470;28;20201;-57
2021/11/05 04:38:22;;;;;;;41.88;21.40;;;;;;;;;;5050523;28;20205;-57
2021/11/05 04:40:49;;;;;;;35.67;21.38;;;;;;;;;;5050127;28;20205;-57
2021/11/05 04:43:18;;;;;;;37.70;21.40;;;;;;;;;;5050720;28;20209;-57
2021/11/05 04:45:45;;;;;;;42.58;23.45;;;;;;;;;;5050659;28;20225;-57
2021/11/05 04:48:12;;;;;;;39.00;21.35;;;;;;;;;;5050215;28;20698;-57
2021/11/05 04:50:40;;;;;;;40.03;22.73;;;;;;;;;;5050514;28;20205;-57
2021/11/05 04:53:07;;;;;;;39.35;21.45;;;;;;;;;;5050133;28;20276;-57
2021/11/05 04:55:34;;;;;;;36.90;21.13;;;;;;;;;;5049595;28;20692;-57
2021/11/05 04:58:02;;;;;;;37.88;21.25;;;;;;;;;;5049987;28;20209;-57
2021/11/05 05:00:31;;;;;;;36.05;20.73;;;;;;;;;;5049594;28;20291;-56
2021/11/05 05:02:58;;;;;;;39.95;20.58;;;;;;;;;;5049750;28;20235;-55
2021/11/05 05:05:27;;;;;;;40.30;20.45;;;;;;;;;;5049830;28;20197;-56
2021/11/05 05:07:55;;;;;;;34.47;19.85;;;;;;;;;;5049598;28;20221;-56
2021/11/05 05:10:22;;;;;;;39.97;22.40;;;;;;;;;;5049776;28;20229;-56
2021/11/05 05:12:49;;;;;;;35.78;21.85;;;;;;;;;;5049809;28;20221;-56
2021/11/05 05:15:17;;;;;;;40.20;23.20;;;;;;;;;;5049740;28;20208;-56
2021/11/05 05:17:46;;;;;;;42.72;22.58;;;;;;;;;;5049195;28;20684;-56
2021/11/05 05:20:15;;;;;;;34.75;21.02;;;;;;;;;;5035855;28;20249;-56
2021/11/05 05:22:42;;;;;;;37.03;20.48;;;;;;;;;;5035722;28;20614;-56
2021/11/05 05:25:11;;;;;;;43.63;21.15;;;;;;;;;;5035845;28;20202;-56
2021/11/05 05:27:39;;;;;;;35.00;20.00;;;;;;;;;;5035819;28;20228;-56
2021/11/05 05:30:08;;;;;;;36.22;20.52;;;;;;;;;;5035983;28;20280;-57
2021/11/05 05:32:35;;;;;;;37.60;19.75;;;;;;;;;;5036004;28;20226;-56
2021/11/05 05:35:04;;;;;;;42.03;20.90;;;;;;;;;;5035602;28;20206;-56
2021/11/05 05:37:31;;;;;;;38.13;21.52;;;;;;;;;;5035544;28;20194;-56
2021/11/05 05:39:59;;;;;;;35.25;20.65;;;;;;;;;;5035843;28;20206;-56
2021/11/05 05:42:26;;;;;;;35.17;19.88;;;;;;;;;;5035723;28;20226;-56
2021/11/05 05:44:53;;;;;;;33.60;18.65;;;;;;;;;;5035935;28;20572;-56
2021/11/05 05:47:21;;;;;;;32.05;18.63;;;;;;;;;;5036098;28;20226;-56
2021/11/05 05:49:51;;;;;;;31.23;18.55;;;;;;;;;;5035749;28;20679;-57
2021/11/05 05:52:20;;;;;;;36.83;18.45;;;;;;;;;;5035843;28;20734;-56
2021/11/05 05:54:47;;;;;;;30.60;17.65;;;;;;;;;;5035774;28;20224;-57
2021/11/05 05:57:14;;;;;;;27.63;17.70;;;;;;;;;;5035624;28;20202;-56
2021/11/05 05:59:41;;;;;;;33.33;17.33;;;;;;;;;;5035229;28;20205;-56
2021/11/05 06:02:09;;;;;;;29.85;17.13;;;;;;;;;;5035142;28;20232;-56
2021/11/05 06:04:37;;;;;;;34.58;19.48;;;;;;;;;;5035215;28;20252;-57
2021/11/05 06:07:05;;;;;;;25.92;17.02;;;;;;;;;;5034951;28;20293;-57
2021/11/05 06:09:33;;;;;;;35.40;19.65;;;;;;;;;;5035693;28;20198;-56
2021/11/05 06:12:01;;;;;;;28.67;17.23;;;;;;;;;;5035165;28;20245;-56
2021/11/05 06:14:28;;;;;;;31.83;17.60;;;;;;;;;;5034867;28;20253;-56
2021/11/05 06:16:56;;;;;;;27.40;16.77;;;;;;;;;;5034990;28;20206;-56
2021/11/05 06:19:23;;;;;;;30.00;17.40;;;;;;;;;;5034947;28;20198;-57
2021/11/05 06:21:50;;;;;;;30.13;17.13;;;;;;;;;;5034811;28;20226;-57
2021/11/05 06:24:18;;;;;;;27.88;18.25;;;;;;;;;;5034931;28;20209;-57
2021/11/05 06:26:47;;;;;;;32.10;18.23;;;;;;;;;;5034823;28;20249;-56
2021/11/05 06:29:14;;;;;;;28.17;17.55;;;;;;;;;;5034773;28;20223;-57
2021/11/05 06:31:42;;;;;;;28.88;17.40;;;;;;;;;;5033026;28;20241;-56
2021/11/05 06:34:09;;;;;;;30.13;18.45;;;;;;;;;;5034752;28;20206;-57
2021/11/05 06:36:37;;;;;;;29.42;18.23;;;;;;;;;;5034523;28;20233;-57
2021/11/05 06:39:05;;;;;;;28.65;17.80;;;;;;;;;;5035143;28;20205;-57
2021/11/05 06:41:32;;;;;;;31.88;19.48;;;;;;;;;;5034448;28;20249;-57
2021/11/05 06:44:01;;;;;;;30.05;18.90;;;;;;;;;;5034218;28;20206;-56
2021/11/05 06:46:28;;;;;;;27.67;16.05;;;;;;;;;;5034362;28;20209;-57
2021/11/05 06:48:56;;;;;;;25.58;17.77;;;;;;;;;;5034091;28;20724;-57
2021/11/05 06:51:23;;;;;;;28.92;17.65;;;;;;;;;;5034235;28;20222;-58
2021/11/05 06:53:50;;;;;;;26.92;15.88;;;;;;;;;;5034620;28;20206;-57
2021/11/05 06:56:19;;;;;;;28.02;16.42;;;;;;;;;;5034189;28;20670;-58
2021/11/05 06:58:47;;;;;;;27.10;17.35;;;;;;;;;;5034467;28;20198;-58
2021/11/05 07:01:16;;;;;;;27.27;17.40;;;;;;;;;;5034178;28;20218;-57
2021/11/05 07:03:43;;;;;;;31.17;18.40;;;;;;;;;;5034237;28;20209;-58
2021/11/05 07:06:10;;;;;;;29.45;17.10;;;;;;;;;;5033833;28;20218;-58
2021/11/05 07:08:38;;;;;;;31.55;16.90;;;;;;;;;;5034506;28;20590;-58
2021/11/05 07:11:05;;;;;;;27.92;16.95;;;;;;;;;;5033982;28;20209;-57
2021/11/05 07:13:33;;;;;;;35.88;17.85;;;;;;;;;;5033918;28;20209;-58
2021/11/05 07:16:00;;;;;;;31.77;18.27;;;;;;;;;;5033516;28;20202;-57
2021/11/05 07:18:31;;;;;;;31.65;16.95;;;;;;;;;;5033575;28;20205;-56
2021/11/05 07:21:01;;;;;;;28.25;17.95;;;;;;;;;;5033857;28;20198;-56
2021/11/05 07:23:28;;;;;;;29.90;18.10;;;;;;;;;;5034001;28;20186;-57
2021/11/05 07:25:55;;;;;;;28.60;19.15;;;;;;;;;;5033380;28;20202;-56
2021/11/05 07:28:23;;;;;;;32.38;18.20;;;;;;;;;;5033390;28;20564;-56
2021/11/05 07:30:50;;;;;;;29.63;17.40;;;;;;;;;;5033445;28;20209;-56
2021/11/05 07:33:17;;;;;;;31.48;18.40;;;;;;;;;;5033178;28;20209;-57
2021/11/05 07:35:46;;;;;;;32.75;16.83;;;;;;;;;;5033259;28;20206;-57
2021/11/05 07:38:13;;;;;;;28.80;17.98;;;;;;;;;;5033074;28;20202;-56
2021/11/05 07:40:40;;;;;;;29.27;18.40;;;;;;;;;;5033201;28;20235;-56
2021/11/05 07:43:08;;;;;;;36.35;20.40;;;;;;;;;;5032900;28;20230;-55
2021/11/05 07:45:35;;;;;;;29.75;17.10;;;;;;;;;;5033046;28;20212;-57
2021/11/05 07:48:02;;;;;;;27.52;16.52;;;;;;;;;;5033290;28;20218;-57
2021/11/05 07:50:33;;;;;;;29.17;17.92;;;;;;;;;;5032905;28;20206;-56
2021/11/05 07:53:02;;;;;;;33.47;18.88;;;;;;;;;;5033110;28;20236;-56
2021/11/05 07:55:30;;;;;;;27.90;17.30;;;;;;;;;;5033335;28;20608;-57
2021/11/05 07:57:57;;;;;;;28.58;17.50;;;;;;;;;;5033447;28;20202;-56
2021/11/05 08:00:25;;;;;;;31.73;18.63;;;;;;;;;;5033822;28;20202;-57
2021/11/05 08:02:52;;;;;;;31.70;17.30;;;;;;;;;;5033014;28;20249;-57
2021/11/05 08:05:19;;;;;;;31.42;18.42;;;;;;;;;;5033263;28;20202;-57
2021/11/05 08:07:46;;;;;;;29.35;17.05;;;;;;;;;;5033048;28;20202;-57
2021/11/05 08:10:20;;;;;;;26.20;16.88;;;;;;;;;;5033188;28;20633;-56
2021/11/05 08:12:47;;;;;;;28.27;16.70;;;;;;;;;;5032777;28;20313;-57
2021/11/05 08:15:15;;;;;;;28.02;16.15;;;;;;;;;;5032740;28;20666;-58
2021/11/05 08:17:43;;;;;;;25.88;16.63;;;;;;;;;;5032810;28;20209;-57
2021/11/05 08:20:11;;;;;;;22.08;15.68;;;;;;;;;;5032661;28;20213;-56
2021/11/05 08:22:38;;;;;;;28.20;15.73;;;;;;;;;;5032440;28;20597;-58
2021/11/05 08:25:06;;;;;;;28.92;15.55;;;;;;;;;;5032731;28;20201;-57
2021/11/05 08:27:35;;;;;;;33.00;16.92;;;;;;;;;;5033111;28;20202;-57
2021/11/05 08:30:03;;;;;;;24.23;15.23;;;;;;;;;;5032660;28;20253;-57
2021/11/05 08:32:31;;;;;;;24.92;15.50;;;;;;;;;;5033237;28;20313;-57
2021/11/05 08:34:58;;;;;;;31.85;17.15;;;;;;;;;;5032999;28;20324;-57
2021/11/05 08:37:26;;;;;;;29.00;15.82;;;;;;;;;;5033313;28;20202;-57
2021/11/05 08:39:53;;;;;;;26.00;15.32;;;;;;;;;;5032798;28;20198;-57
2021/11/05 08:42:20;;;;;;;29.45;15.05;;;;;;;;;;5032506;28;20229;-57
2021/11/05 08:44:49;;;;;;;26.63;16.15;;;;;;;;;;5032311;28;20202;-58
2021/11/05 08:47:17;;;;;;;32.95;15.75;;;;;;;;;;5032284;28;20210;-57
2021/11/05 08:49:46;;;;;;;27.08;15.20;;;;;;;;;;5032447;28;20694;-57
2021/11/05 08:52:13;;;;;;;30.70;14.32;;;;;;;;;;5032854;28;20219;-58
2021/11/05 08:54:40;;;;;;;26.17;15.00;;;;;;;;;;5034801;28;20209;-56
2021/11/05 08:57:08;;;;;;;24.77;14.43;;;;;;;;;;5036147;28;20674;-56
2021/11/05 08:59:35;;;;;;;26.35;14.10;;;;;;;;;;5036052;28;20614;-57
2021/11/05 09:02:04;;;;;;;25.15;12.40;;;;;;;;;;5036405;28;20222;-56
2021/11/05 09:04:31;;;;;;;24.48;14.88;;;;;;;;;;5037115;28;20202;-56
2021/11/05 09:06:59;;;;;;;20.48;12.75;;;;;;;;;;5036134;28;20209;-57
2021/11/05 09:09:26;;;;;;;24.40;13.65;;;;;;;;;;5035860;28;20698;-57
2021/11/05 09:11:54;;;;;;;20.70;12.70;;;;;;;;;;5036147;28;20226;-56
2021/11/05 09:14:22;;;;;;;18.55;11.52;;;;;;;;;;5036028;28;20210;-58
2021/11/05 09:16:49;;;;;;;21.17;13.05;;;;;;;;;;5035666;28;20202;-58
2021/11/05 09:19:18;;;;;;;20.58;11.85;;;;;;;;;;5035954;28;20315;-57
2021/11/05 09:21:45;;;;;;;22.58;13.30;;;;;;;;;;5035562;28;20229;-57
2021/11/05 09:24:12;;;;;;;16.15;10.85;;;;;;;;;;5035608;28;20580;-56
2021/11/05 09:26:40;;;;;;;18.13;12.30;;;;;;;;;;5035601;28;20678;-58
2021/11/05 09:29:07;;;;;;;18.33;11.00;;;;;;;;;;5035854;28;20245;-57
2021/11/05 09:31:34;;;;;;;17.20;11.80;;;;;;;;;;5035576;28;20612;-58
2021/11/05 09:34:01;;;;;;;17.92;11.63;;;;;;;;;;5035814;28;20210;-58
2021/11/05 09:36:30;;;;;;;18.35;10.93;;;;;;;;;;5035564;28;20198;-58
2021/11/05 09:38:57;;;;;;;14.50;10.45;;;;;;;;;;5035561;28;20681;-57
2021/11/05 09:41:25;;;;;;;13.35;10.35;;;;;;;;;;5035914;28;20229;-57
2021/11/05 09:43:52;;;;;;;15.48;11.05;;;;;;;;;;5035644;28;20202;-57
2021/11/05 09:46:19;;;;;;;17.13;11.00;;;;;;;;;;5035722;28;20575;-57
2021/11/05 09:48:47;;;;;;;16.33;10.60;;;;;;;;;;5035403;28;20222;-57
2021/11/05 09:51:15;;;;;;;19.42;11.23;;;;;;;;;;5035643;28;20231;-57
2021/11/05 09:53:43;;;;;;;18.10;11.63;;;;;;;;;;5035412;28;20217;-57
2021/11/05 09:56:13;;;;;;;19.00;11.98;;;;;;;;;;5035586;28;20206;-59
2021/11/05 09:58:42;;;;;;;17.98;12.25;;;;;;;;;;5035355;28;20194;-58
2021/11/05 10:01:09;;;;;;;17.65;10.77;;;;;;;;;;5035303;28;20593;-57
2021/11/05 10:03:37;;;;;;;17.45;11.70;;;;;;;;;;5035457;28;20578;-56
2021/11/05 10:06:07;;;;;;;14.60;10.90;;;;;;;;;;5034752;28;20209;-57
2021/11/05 10:08:36;;;;;;;15.95;11.48;;;;;;;;;;5035452;28;20233;-57
2021/11/05 10:11:20;;;;;;;16.55;9.88;;;;;;;;;;5035144;28;20326;-57
2021/11/05 10:13:47;;;;;;;14.10;9.75;;;;;;;;;;5035060;28;20553;-57
2021/11/05 10:16:15;;;;;;;16.23;10.43;;;;;;;;;;5034675;28;20206;-57
2021/11/05 10:18:54;;;;;;;15.95;9.68;;;;;;;;;;5035380;28;20205;-58
2021/11/05 10:21:28;;;;;;;12.55;9.55;;;;;;;;;;5035212;28;20608;-58
2021/11/05 10:24:06;;;;;;;15.00;9.18;;;;;;;;;;5034798;28;20198;-58
2021/11/05 10:26:35;;;;;;;17.50;9.40;;;;;;;;;;5034748;28;20187;-58
2021/11/05 10:29:03;;;;;;;19.70;10.57;;;;;;;;;;5034217;28;20218;-59
2021/11/05 10:31:31;;;;;;;15.35;10.05;;;;;;;;;;5034292;28;20714;-58
2021/11/05 10:33:58;;;;;;;16.52;10.15;;;;;;;;;;5034065;28;20202;-58
2021/11/05 10:36:27;;;;;;;13.40;9.32;;;;;;;;;;5034587;28;20209;-57
2021/11/05 10:38:57;;;;;;;12.70;9.10;;;;;;;;;;5033997;28;20297;-58
2021/11/05 10:41:25;;;;;;;13.50;9.20;;;;;;;;;;5034451;28;20599;-57
2021/11/05 10:43:55;;;;;;;11.30;8.32;;;;;;;;;;5034308;28;20206;-58
2021/11/05 10:46:31;;;;;;;10.97;8.77;;;;;;;;;;5034578;28;20198;-58
2021/11/05 10:48:59;;;;;;;11.33;8.33;;;;;;;;;;5034146;28;20484;-58
2021/11/05 10:51:28;;;;;;;11.60;7.87;;;;;;;;;;5034116;28;20476;-57
2021/11/05 10:53:57;;;;;;;11.82;7.72;;;;;;;;;;5033967;28;20445;-57
2021/11/05 10:56:25;;;;;;;12.53;7.70;;;;;;;;;;5033808;28;20205;-58
2021/11/05 10:58:56;;;;;;;8.70;7.10;;;;;;;;;;5034017;28;20441;-58
2021/11/05 11:01:24;;;;;;;9.48;6.95;;;;;;;;;;5033521;28;20240;-57
2021/11/05 11:03:52;;;;;;;10.20;6.75;;;;;;;;;;5033635;28;20213;-58
2021/11/05 11:06:21;;;;;;;13.02;7.00;;;;;;;;;;5033904;28;20237;-56
2021/11/05 11:08:49;;;;;;;10.68;7.32;;;;;;;;;;5033879;28;20209;-58
2021/11/05 11:11:21;;;;;;;14.07;7.25;;;;;;;;;;5033749;28;20227;-56
2021/11/05 11:13:49;;;;;;;9.50;7.13;;;;;;;;;;5034059;28;20202;-57
2021/11/05 11:16:22;;;;;;;10.07;6.88;;;;;;;;;;5032929;28;20289;-57
2021/11/05 11:18:52;;;;;;;15.15;7.20;;;;;;;;;;5033366;28;20191;-57
2021/11/05 11:21:20;;;;;;;10.25;6.75;;;;;;;;;;5033328;28;20237;-58
2021/11/05 11:23:47;;;;;;;11.60;6.90;;;;;;;;;;5033301;28;20213;-57
2021/11/05 11:26:15;;;;;;;9.15;6.30;;;;;;;;;;5033144;28;20666;-57
2021/11/05 11:28:43;;;;;;;9.60;6.68;;;;;;;;;;5033030;28;20212;-57
2021/11/05 11:31:12;;;;;;;10.13;7.33;;;;;;;;;;5033395;28;20276;-58
2021/11/05 11:33:41;;;;;;;8.43;5.70;;;;;;;;;;5033113;28;20801;-57
2021/11/05 11:36:09;;;;;;;11.30;6.87;;;;;;;;;;5033356;28;20445;-57
2021/11/05 11:38:36;;;;;;;8.63;5.90;;;;;;;;;;5033380;28;20453;-57
2021/11/05 11:41:06;;;;;;;10.70;6.47;;;;;;;;;;5033297;28;20441;-57
2021/11/05 11:43:34;;;;;;;10.07;6.13;;;;;;;;;;5033481;28;20804;-57
2021/11/05 11:46:02;;;;;;;9.83;6.80;;;;;;;;;;5032737;28;20203;-57
2021/11/05 11:48:45;;;;;;;11.07;7.60;;;;;;;;;;5032729;28;20441;-57
2021/11/05 11:51:27;;;;;;;10.97;7.03;;;;;;;;;;5033194;28;20564;-57
2021/11/05 11:53:56;;;;;;;7.95;6.15;;;;;;;;;;5030618;28;20456;-57
2021/11/05 11:56:24;;;;;;;15.77;6.57;;;;;;;;;;5032612;28;20206;-57
2021/11/05 11:58:55;;;;;;;8.50;5.63;;;;;;;;;;5032606;28;20478;-57
2021/11/05 12:01:23;;;;;;;9.90;6.40;;;;;;;;;;5032925;28;20501;-57
2021/11/05 12:03:57;;;;;;;9.17;5.63;;;;;;;;;;5033280;28;20452;-58
2021/11/05 12:06:25;;;;;;;11.27;7.13;;;;;;;;;;5032592;28;20444;-58
2021/11/05 12:08:52;;;;;;;8.47;6.73;;;;;;;;;;5032906;28;20862;-58
2021/11/05 12:11:23;;;;;;;11.63;6.50;;;;;;;;;;5032529;28;20464;-57
2021/11/05 12:13:52;;;;;;;7.67;6.20;;;;;;;;;;5033219;28;20452;-57
2021/11/05 12:16:22;;;;;;;7.63;6.10;;;;;;;;;;5032821;28;20448;-57
2021/11/05 12:19:07;;;;;;;10.17;7.20;;;;;;;;;;5032258;28;20465;-57
2021/11/05 12:21:36;;;;;;;9.70;7.30;;;;;;;;;;5022430;28;20491;-58
2021/11/05 12:24:26;;;;;;;8.13;6.13;;;;;;;;;;5032695;28;20860;-58
2021/11/05 12:26:54;;;;;;;19.90;8.07;;;;;;;;;;5032704;28;20468;-58
2021/11/05 12:29:39;;;;;;;11.17;5.90;;;;;;;;;;5034609;28;20483;-57
2021/11/05 12:32:22;;;;;;;12.07;7.40;;;;;;;;;;5036709;28;20471;-58
2021/11/05 12:34:52;;;;;;;8.23;6.10;;;;;;;;;;5036497;28;21014;-57
2021/11/05 12:37:31;;;;;;;5.67;4.80;;;;;;;;;;5036549;28;20452;-57
2021/11/05 12:40:13;;;;;;;11.10;6.60;;;;;;;;;;5036707;28;20901;-57
2021/11/05 12:42:41;;;;;;;12.90;7.37;;;;;;;;;;5036145;28;20992;-57
2021/11/05 12:45:08;;;;;;;9.67;6.23;;;;;;;;;;5036789;28;20444;-58
2021/11/05 12:47:49;;;;;;;10.73;5.73;;;;;;;;;;5037148;28;20555;-57
2021/11/05 12:50:17;;;;;;;7.60;5.70;;;;;;;;;;5036833;28;20488;-57
2021/11/05 12:52:52;;;;;;;8.27;5.77;;;;;;;;;;5037001;28;20468;-57
2021/11/05 12:55:20;;;;;;;9.90;5.77;;;;;;;;;;5036796;28;20483;-58
2021/11/05 12:57:50;;;;;;;6.78;6.00;;;;;;;;;;5035859;28;20548;-57
2021/11/05 13:00:20;;;;;;;8.47;5.90;;;;;;;;;;5036452;28;20200;-57
2021/11/05 13:02:51;;;;;;;7.53;6.17;;;;;;;;;;5036648;28;20504;-57
2021/11/05 13:05:18;;;;;;;7.55;6.45;;;;;;;;;;5037432;28;20452;-57
2021/11/05 13:07:54;;;;;;;8.03;5.40;;;;;;;;;;5036003;28;20206;-58
2021/11/05 13:10:25;;;;;;;10.90;7.20;;;;;;;;;;5036281;28;20501;-58
2021/11/05 13:12:53;;;;;;;10.73;6.03;;;;;;;;;;5035929;28;20464;-58
2021/11/05 13:15:21;;;;;;;6.70;5.27;;;;;;;;;;5036279;28;20510;-58
2021/11/05 13:17:49;;;;;;;7.17;5.73;;;;;;;;;;5036264;28;20444;-57
2021/11/05 13:20:20;;;;;;;7.90;5.60;;;;;;;;;;5035604;28;20502;-57
2021/11/05 13:22:48;;;;;;;5.50;5.00;;;;;;;;;;5035490;28;21002;-58
2021/11/05 13:25:18;;;;;;;7.27;5.23;;;;;;;;;;5035560;28;20448;-58
2021/11/05 13:27:46;;;;;;;9.30;5.20;;;;;;;;;;5035386;28;20453;-58
2021/11/05 13:30:14;;;;;;;7.60;5.40;;;;;;;;;;5035509;28;20891;-57
2021/11/05 13:32:42;;;;;;;10.03;5.83;;;;;;;;;;5035572;28;20476;-58
2021/11/05 13:35:10;;;;;;;12.03;5.53;;;;;;;;;;5035370;28;20542;-57
2021/11/05 13:37:37;;;;;;;9.30;6.00;;;;;;;;;;5035315;28;20933;-57
2021/11/05 13:40:05;;;;;;;6.53;4.93;;;;;;;;;;5035044;28;20445;-58
2021/11/05 13:42:34;;;;;;;8.10;5.90;;;;;;;;;;5035173;28;20473;-57
2021/11/05 13:45:03;;;;;;;6.40;5.00;;;;;;;;;;5035422;28;20440;-57
2021/11/05 13:47:30;;;;;;;9.57;5.90;;;;;;;;;;5036001;28;20448;-57
2021/11/05 13:50:05;;;;;;;10.03;5.40;;;;;;;;;;5035049;28;20483;-57
2021/11/05 13:52:32;;;;;;;7.83;5.00;;;;;;;;;;5035643;28;20490;-57
2021/11/05 13:55:00;;;;;;;8.30;5.23;;;;;;;;;;5035381;28;20452;-57
2021/11/05 13:57:27;;;;;;;9.93;5.50;;;;;;;;;;5035397;28;20550;-57
2021/11/05 13:59:59;;;;;;;9.17;5.70;;;;;;;;;;5034966;28;20445;-57
2021/11/05 14:02:27;;;;;;;9.48;4.88;;;;;;;;;;5034513;28;20559;-58
2021/11/05 14:04:54;;;;;;;5.53;4.57;;;;;;;;;;5035026;28;20214;-57
2021/11/05 14:07:21;;;;;;;11.53;6.70;;;;;;;;;;5034477;28;20455;-58
2021/11/05 14:10:00;;;;;;;4.80;4.40;;;;;;;;;;5034826;28;20452;-57
2021/11/05 14:12:27;;;;;;;7.00;5.40;;;;;;;;;;5034727;28;20848;-57
2021/11/05 14:14:56;;;;;;;7.53;4.50;;;;;;;;;;5034748;28;20476;-58
2021/11/05 14:17:24;;;;;;;6.83;5.10;;;;;;;;;;5034326;28;20704;-57
2021/11/05 14:19:56;;;;;;;5.50;4.53;;;;;;;;;;5034457;28;20479;-58
2021/11/05 14:22:24;;;;;;;11.57;5.53;;;;;;;;;;5034110;28;20480;-57
2021/11/05 14:24:53;;;;;;;10.00;6.10;;;;;;;;;;5034411;28;20460;-57
2021/11/05 14:27:23;;;;;;;6.50;5.37;;;;;;;;;;5034124;28;20932;-56
2021/11/05 14:29:52;;;;;;;7.80;5.20;;;;;;;;;;5034227;28;20432;-56
2021/11/05 14:32:21;;;;;;;5.57;4.90;;;;;;;;;;5034762;28;20487;-56
2021/11/05 14:34:50;;;;;;;9.70;6.00;;;;;;;;;;5034641;28;20436;-57